Time;durP1;ratioP1;P1;durP2;ratioP2;P2;SDS_P1;SDS_P2;PMS_P1;PMS_P2;Temp;Humidity;BMP_temperature;BMP_pressure;BME280_temperature;BME280_humidity;BME280_pressure;Samples;Min_cycle;Max_cycle;Signal;HPM_P1;HPM_P2
2024/02/03 00:00:50;;;;;;;29.05;14.07;;;;;;;;;;5029935;28;20028;-92
2024/02/03 00:03:17;;;;;;;28.23;14.65;;;;;;;;;;5061171;28;20029;-92
2024/02/03 00:05:44;;;;;;;30.88;14.55;;;;;;;;;;5061289;28;20021;-91
2024/02/03 00:08:10;;;;;;;26.85;13.65;;;;;;;;;;5061081;28;20029;-91
2024/02/03 00:10:36;;;;;;;30.00;14.93;;;;;;;;;;5026790;28;20025;-91
2024/02/03 00:13:03;;;;;;;31.15;14.35;;;;;;;;;;5061115;28;20033;-91
2024/02/03 00:15:29;;;;;;;30.23;15.20;;;;;;;;;;5043274;28;20087;-91
2024/02/03 00:17:55;;;;;;;31.90;15.00;;;;;;;;;;5043338;28;20414;-92
2024/02/03 00:20:21;;;;;;;31.33;14.52;;;;;;;;;;5042663;28;20065;-91
2024/02/03 00:25:51;;;;;;;29.90;13.85;;;;;;;;;;5060637;28;20036;-95
2024/02/03 00:28:17;;;;;;;29.73;13.60;;;;;;;;;;5060536;28;20029;-93
2024/02/03 00:30:43;;;;;;;29.55;13.80;;;;;;;;;;5031654;28;20053;-93
2024/02/03 00:33:10;;;;;;;26.25;14.13;;;;;;;;;;5045296;28;20036;-93
2024/02/03 00:35:36;;;;;;;28.65;13.98;;;;;;;;;;5060885;28;20100;-93
2024/02/03 00:41:06;;;;;;;31.77;13.88;;;;;;;;;;5058995;28;20047;-93
2024/02/03 00:43:32;;;;;;;28.90;12.75;;;;;;;;;;5022614;28;20041;-92
2024/02/03 00:45:59;;;;;;;24.77;12.88;;;;;;;;;;5040287;28;20125;-94
2024/02/03 00:48:26;;;;;;;26.02;12.00;;;;;;;;;;5040427;28;20029;-94
2024/02/03 00:50:52;;;;;;;24.15;12.15;;;;;;;;;;5040046;28;20029;-93
2024/02/03 00:53:18;;;;;;;23.52;11.23;;;;;;;;;;5022554;28;20033;-93
2024/02/03 00:55:44;;;;;;;20.38;11.10;;;;;;;;;;5022762;28;20030;-92
2024/02/03 00:58:10;;;;;;;25.70;12.20;;;;;;;;;;5022799;28;20395;-92
2024/02/03 01:00:36;;;;;;;21.92;11.13;;;;;;;;;;5039892;28;20034;-91
2024/02/03 01:03:02;;;;;;;22.73;11.20;;;;;;;;;;5022125;28;20056;-93
2024/02/03 01:05:28;;;;;;;19.10;10.35;;;;;;;;;;5039854;28;20315;-91
2024/02/03 01:07:54;;;;;;;17.73;10.95;;;;;;;;;;5040010;28;20348;-93
2024/02/03 01:10:20;;;;;;;23.00;11.80;;;;;;;;;;5039646;28;20411;-92
2024/02/03 01:12:46;;;;;;;22.90;10.63;;;;;;;;;;5022183;28;20026;-92
2024/02/03 01:15:12;;;;;;;22.70;10.35;;;;;;;;;;5022254;28;20042;-92
2024/02/03 01:17:38;;;;;;;19.48;10.95;;;;;;;;;;5039455;28;20026;-93
2024/02/03 01:20:05;;;;;;;19.70;11.27;;;;;;;;;;5022172;28;20112;-93
2024/02/03 01:22:31;;;;;;;15.50;9.50;;;;;;;;;;5022151;28;20025;-93
2024/02/03 01:24:57;;;;;;;21.30;11.05;;;;;;;;;;5039500;28;20037;-92
2024/02/03 01:27:23;;;;;;;21.35;10.48;;;;;;;;;;5039633;28;20025;-93
2024/02/03 01:29:49;;;;;;;17.30;9.73;;;;;;;;;;5039531;28;20071;-91
2024/02/03 01:32:15;;;;;;;21.23;10.32;;;;;;;;;;5047873;28;20041;-91
2024/02/03 01:34:41;;;;;;;20.00;9.90;;;;;;;;;;5058984;28;20477;-92
2024/02/03 01:37:07;;;;;;;23.95;13.02;;;;;;;;;;5041619;28;20029;-93
2024/02/03 01:39:34;;;;;;;23.20;11.80;;;;;;;;;;5041671;28;20036;-93
2024/02/03 01:42:00;;;;;;;21.08;11.52;;;;;;;;;;5058742;28;20423;-91
2024/02/03 01:44:29;;;;;;;29.17;13.63;;;;;;;;;;5041620;28;20024;-91
2024/02/03 01:46:55;;;;;;;29.58;14.15;;;;;;;;;;5059343;28;20032;-92
2024/02/03 01:49:21;;;;;;;35.15;15.75;;;;;;;;;;5059258;28;20025;-91
2024/02/03 01:51:48;;;;;;;33.17;14.65;;;;;;;;;;5041063;28;20025;-92
2024/02/03 01:54:14;;;;;;;26.00;12.68;;;;;;;;;;5041155;28;20036;-92
2024/02/03 01:56:42;;;;;;;30.13;14.10;;;;;;;;;;5041361;28;20036;-91
2024/02/03 01:59:09;;;;;;;28.30;13.15;;;;;;;;;;5059047;28;20048;-92
2024/02/03 02:01:35;;;;;;;27.52;13.45;;;;;;;;;;5040653;28;20442;-91
2024/02/03 02:04:01;;;;;;;25.42;12.60;;;;;;;;;;5058186;28;20021;-91
2024/02/03 02:06:27;;;;;;;19.23;11.23;;;;;;;;;;5057699;28;20025;-92
2024/02/03 02:08:53;;;;;;;24.70;12.02;;;;;;;;;;5041146;28;20031;-92
2024/02/03 02:11:25;;;;;;;20.00;11.63;;;;;;;;;;5040918;28;20029;-91
2024/02/03 02:13:51;;;;;;;25.23;11.40;;;;;;;;;;5058912;28;20029;-91
2024/02/03 02:16:17;;;;;;;23.27;11.68;;;;;;;;;;5058337;28;20358;-91
2024/02/03 02:18:43;;;;;;;19.73;10.88;;;;;;;;;;5039193;28;20120;-92
2024/02/03 02:21:10;;;;;;;24.23;12.02;;;;;;;;;;5038326;28;20035;-91
2024/02/03 02:23:36;;;;;;;22.10;11.63;;;;;;;;;;5038362;28;20028;-92
2024/02/03 02:26:02;;;;;;;19.95;10.32;;;;;;;;;;5020882;28;20072;-91
2024/02/03 02:28:29;;;;;;;21.63;10.52;;;;;;;;;;5020435;28;20041;-92
2024/02/03 02:30:55;;;;;;;22.48;11.18;;;;;;;;;;5020870;28;20424;-92
2024/02/03 02:33:21;;;;;;;18.75;10.48;;;;;;;;;;5038519;28;20037;-91
2024/02/03 02:35:49;;;;;;;17.27;9.77;;;;;;;;;;5038541;28;20029;-92
2024/02/03 02:41:34;;;;;;;20.25;10.40;;;;;;;;;;5038919;28;20048;-92
2024/02/03 02:44:00;;;;;;;19.48;11.35;;;;;;;;;;5058283;28;20025;-92
2024/02/03 02:46:27;;;;;;;19.52;9.90;;;;;;;;;;5040524;28;20094;-92
2024/02/03 02:48:53;;;;;;;19.33;10.00;;;;;;;;;;5058273;28;20028;-92
2024/02/03 02:51:19;;;;;;;17.42;9.95;;;;;;;;;;5040510;28;20047;-93
2024/02/03 02:53:45;;;;;;;18.13;9.82;;;;;;;;;;5057486;28;20398;-92
2024/02/03 02:56:12;;;;;;;16.10;8.63;;;;;;;;;;5057422;28;20024;-92
2024/02/03 02:58:38;;;;;;;17.48;9.38;;;;;;;;;;5040100;28;20028;-92
2024/02/03 03:01:04;;;;;;;16.00;9.75;;;;;;;;;;5057497;28;20395;-92
2024/02/03 03:03:30;;;;;;;16.85;9.57;;;;;;;;;;5039789;28;20077;-91
2024/02/03 03:05:57;;;;;;;18.35;9.38;;;;;;;;;;5058030;28;20048;-91
2024/02/03 03:08:42;;;;;;;18.42;10.65;;;;;;;;;;5040189;28;20067;-93
2024/02/03 03:11:10;;;;;;;19.10;10.45;;;;;;;;;;5039435;28;20028;-92
2024/02/03 03:13:36;;;;;;;17.33;9.55;;;;;;;;;;5057303;28;20025;-92
2024/02/03 03:16:02;;;;;;;20.15;9.73;;;;;;;;;;5057653;28;20037;-92
2024/02/03 03:18:28;;;;;;;18.83;10.00;;;;;;;;;;5057764;28;20292;-92
2024/02/03 03:20:54;;;;;;;16.88;9.18;;;;;;;;;;5039821;28;20470;-93
2024/02/03 03:23:20;;;;;;;17.65;9.82;;;;;;;;;;5057069;28;20052;-92
2024/02/03 03:25:46;;;;;;;18.83;9.35;;;;;;;;;;5039995;28;20068;-91
2024/02/03 03:28:12;;;;;;;16.33;8.60;;;;;;;;;;5057901;28;20045;-91
2024/02/03 03:30:38;;;;;;;19.10;9.45;;;;;;;;;;5057106;28;20049;-92
2024/02/03 03:33:04;;;;;;;19.15;9.45;;;;;;;;;;5044997;28;20037;-92
2024/02/03 03:35:30;;;;;;;18.35;9.20;;;;;;;;;;5037687;28;20396;-92
2024/02/03 03:37:57;;;;;;;16.13;9.13;;;;;;;;;;5037336;28;20033;-92
2024/02/03 03:40:23;;;;;;;15.88;8.68;;;;;;;;;;5019509;28;20088;-92
2024/02/03 03:42:50;;;;;;;17.13;8.82;;;;;;;;;;5037108;28;20033;-92
2024/02/03 03:45:19;;;;;;;17.52;8.98;;;;;;;;;;5037633;28;20017;-92
2024/02/03 03:47:45;;;;;;;17.77;9.35;;;;;;;;;;5019740;28;20035;-91
2024/02/03 03:50:11;;;;;;;18.20;9.60;;;;;;;;;;5037507;28;20029;-92
2024/02/03 03:52:37;;;;;;;18.38;9.55;;;;;;;;;;5037359;28;20025;-92
2024/02/03 03:55:03;;;;;;;18.48;9.25;;;;;;;;;;5037453;28;20029;-92
2024/02/03 03:57:29;;;;;;;13.90;8.30;;;;;;;;;;5037450;28;20022;-91
2024/02/03 03:59:55;;;;;;;22.42;9.30;;;;;;;;;;5019758;28;20430;-91
2024/02/03 04:02:21;;;;;;;15.43;9.18;;;;;;;;;;5036989;28;20032;-91
2024/02/03 04:04:47;;;;;;;15.23;8.55;;;;;;;;;;5019852;28;20025;-90
2024/02/03 04:07:13;;;;;;;17.52;8.63;;;;;;;;;;5037585;28;20101;-92
2024/02/03 04:09:47;;;;;;;16.42;9.07;;;;;;;;;;5019822;28;20029;-92
2024/02/03 04:12:13;;;;;;;18.10;9.30;;;;;;;;;;5019713;28;20041;-93
2024/02/03 04:14:42;;;;;;;16.38;8.90;;;;;;;;;;5019513;28;20029;-92
2024/02/03 04:17:08;;;;;;;18.20;9.63;;;;;;;;;;5019690;28;20033;-92
2024/02/03 04:19:34;;;;;;;19.23;9.57;;;;;;;;;;5019683;28;20044;-93
2024/02/03 04:22:00;;;;;;;15.52;9.00;;;;;;;;;;5019694;28;20120;-92
2024/02/03 04:24:26;;;;;;;16.60;8.80;;;;;;;;;;5036955;28;20026;-92
2024/02/03 04:26:52;;;;;;;17.27;9.05;;;;;;;;;;5020079;28;20136;-92
2024/02/03 04:29:18;;;;;;;20.55;9.85;;;;;;;;;;5022450;28;20029;-92
2024/02/03 04:31:44;;;;;;;25.63;10.73;;;;;;;;;;5023148;28;20053;-92
2024/02/03 04:34:10;;;;;;;26.52;12.48;;;;;;;;;;5022879;28;20029;-92
2024/02/03 04:36:36;;;;;;;20.13;10.63;;;;;;;;;;5040695;28;20025;-93
2024/02/03 04:39:02;;;;;;;17.17;9.07;;;;;;;;;;5040370;28;20025;-92
2024/02/03 04:41:28;;;;;;;20.13;10.60;;;;;;;;;;5022899;28;20029;-93
2024/02/03 04:43:54;;;;;;;15.70;9.55;;;;;;;;;;5022693;28;20037;-92
2024/02/03 04:46:20;;;;;;;20.02;10.05;;;;;;;;;;5022890;28;20033;-92
2024/02/03 04:48:46;;;;;;;16.88;8.32;;;;;;;;;;5040508;28;20100;-92
2024/02/03 04:51:12;;;;;;;15.68;9.45;;;;;;;;;;5040342;28;20076;-92
2024/02/03 04:53:39;;;;;;;24.55;12.45;;;;;;;;;;5040501;28;20101;-91
2024/02/03 04:56:09;;;;;;;18.17;9.27;;;;;;;;;;5022709;28;20033;-93
2024/02/03 04:58:35;;;;;;;20.05;9.23;;;;;;;;;;5022598;28;20030;-92
2024/02/03 05:01:01;;;;;;;17.13;8.85;;;;;;;;;;5022372;28;20045;-92
2024/02/03 05:03:27;;;;;;;19.58;9.25;;;;;;;;;;5040064;28;20029;-92
2024/02/03 05:05:54;;;;;;;18.20;9.30;;;;;;;;;;5040270;28;20028;-91
2024/02/03 05:08:20;;;;;;;16.77;9.75;;;;;;;;;;5039821;28;20320;-92
2024/02/03 05:10:46;;;;;;;24.38;11.10;;;;;;;;;;5039989;28;20017;-91
2024/02/03 05:13:12;;;;;;;22.80;11.77;;;;;;;;;;5022235;28;20426;-92
2024/02/03 05:15:38;;;;;;;24.55;11.68;;;;;;;;;;5022086;28;20038;-92
2024/02/03 05:18:04;;;;;;;13.13;9.00;;;;;;;;;;5039896;28;20033;-91
2024/02/03 05:20:30;;;;;;;14.82;8.82;;;;;;;;;;5022231;28;20116;-92
2024/02/03 05:22:56;;;;;;;18.42;8.63;;;;;;;;;;5022481;28;20123;-91
2024/02/03 05:25:22;;;;;;;18.40;10.45;;;;;;;;;;5021990;28;20117;-92
2024/02/03 05:27:48;;;;;;;18.05;11.25;;;;;;;;;;5021984;28;20136;-91
2024/02/03 05:30:14;;;;;;;21.92;11.02;;;;;;;;;;5021949;28;20108;-93
2024/02/03 05:32:40;;;;;;;20.42;11.60;;;;;;;;;;5021897;28;20060;-91
2024/02/03 05:35:06;;;;;;;24.20;11.48;;;;;;;;;;5021152;28;20025;-92
2024/02/03 05:37:32;;;;;;;23.27;12.65;;;;;;;;;;5049510;28;20036;-90
2024/02/03 05:39:58;;;;;;;28.63;13.57;;;;;;;;;;5044937;28;20029;-90
2024/02/03 05:42:29;;;;;;;29.92;13.88;;;;;;;;;;5027959;28;20037;-91
2024/02/03 05:44:55;;;;;;;55.08;17.75;;;;;;;;;;5021768;28;20028;-91
2024/02/03 05:47:21;;;;;;;60.30;19.83;;;;;;;;;;5039296;28;20293;-91
2024/02/03 05:49:47;;;;;;;53.13;18.50;;;;;;;;;;5025490;28;20343;-91
2024/02/03 05:52:13;;;;;;;38.08;16.63;;;;;;;;;;5059176;28;20059;-93
2024/02/03 05:54:39;;;;;;;29.17;14.00;;;;;;;;;;5041425;28;20037;-92
2024/02/03 05:57:05;;;;;;;22.55;12.82;;;;;;;;;;5041397;28;20024;-90
2024/02/03 05:59:31;;;;;;;20.45;11.05;;;;;;;;;;5039721;28;20068;-91
2024/02/03 06:01:57;;;;;;;21.27;11.63;;;;;;;;;;5021756;28;20072;-91
2024/02/03 06:04:23;;;;;;;22.92;11.88;;;;;;;;;;5021317;28;20060;-91
2024/02/03 06:06:49;;;;;;;20.25;11.90;;;;;;;;;;5021373;28;20434;-92
2024/02/03 06:09:15;;;;;;;24.95;12.60;;;;;;;;;;5021464;28;20022;-91
2024/02/03 06:11:44;;;;;;;24.17;11.63;;;;;;;;;;5038971;28;20109;-92
2024/02/03 06:14:10;;;;;;;20.05;11.10;;;;;;;;;;5021406;28;20033;-91
2024/02/03 06:16:36;;;;;;;21.60;12.75;;;;;;;;;;5021279;28;20041;-93
2024/02/03 06:19:02;;;;;;;24.33;13.43;;;;;;;;;;5021414;28;20084;-93
2024/02/03 06:21:28;;;;;;;21.27;12.73;;;;;;;;;;5037846;28;20038;-92
2024/02/03 06:23:54;;;;;;;21.55;11.55;;;;;;;;;;5038614;28;20064;-92
2024/02/03 06:26:20;;;;;;;18.27;10.88;;;;;;;;;;5038466;28;20014;-92
2024/02/03 06:28:47;;;;;;;22.98;11.15;;;;;;;;;;5038525;28;20025;-93
2024/02/03 06:31:13;;;;;;;31.42;13.85;;;;;;;;;;5020485;28;20049;-92
2024/02/03 06:33:39;;;;;;;25.38;13.80;;;;;;;;;;5038348;28;20026;-93
2024/02/03 06:36:05;;;;;;;21.20;11.10;;;;;;;;;;5020864;28;20036;-92
2024/02/03 06:38:31;;;;;;;24.50;12.77;;;;;;;;;;5038062;28;20036;-91
2024/02/03 06:40:57;;;;;;;42.35;20.83;;;;;;;;;;5049179;28;20055;-91
2024/02/03 06:43:23;;;;;;;40.03;19.27;;;;;;;;;;5039563;28;20028;-92
2024/02/03 06:45:49;;;;;;;35.83;16.23;;;;;;;;;;5058207;28;20021;-92
2024/02/03 06:48:15;;;;;;;24.63;13.40;;;;;;;;;;5040385;28;20021;-91
2024/02/03 06:50:41;;;;;;;22.25;12.60;;;;;;;;;;5057449;28;20029;-93
2024/02/03 06:53:08;;;;;;;26.55;13.88;;;;;;;;;;5039292;28;20116;-91
2024/02/03 06:55:36;;;;;;;35.50;17.25;;;;;;;;;;5058145;28;20104;-91
2024/02/03 06:58:02;;;;;;;47.67;22.95;;;;;;;;;;5040151;28;20025;-92
2024/02/03 07:00:28;;;;;;;54.88;24.08;;;;;;;;;;5040337;28;20029;-92
2024/02/03 07:02:54;;;;;;;40.33;20.88;;;;;;;;;;5056909;28;20044;-93
2024/02/03 07:05:20;;;;;;;32.83;18.15;;;;;;;;;;5040222;28;20323;-92
2024/02/03 07:07:46;;;;;;;32.00;17.95;;;;;;;;;;5039717;28;20072;-94
2024/02/03 07:10:12;;;;;;;27.45;15.45;;;;;;;;;;5017969;28;20022;-92
2024/02/03 07:12:38;;;;;;;23.20;13.20;;;;;;;;;;5020412;28;20025;-93
2024/02/03 07:15:05;;;;;;;26.55;14.63;;;;;;;;;;5020461;28;20037;-93
2024/02/03 07:17:31;;;;;;;22.95;13.38;;;;;;;;;;5037656;28;20040;-93
2024/02/03 07:19:58;;;;;;;26.90;14.15;;;;;;;;;;5037633;28;20071;-92
2024/02/03 07:22:24;;;;;;;31.50;16.17;;;;;;;;;;5037255;28;20030;-94
2024/02/03 07:24:50;;;;;;;29.77;15.38;;;;;;;;;;5019683;28;20071;-92
2024/02/03 07:27:17;;;;;;;27.58;15.60;;;;;;;;;;5019733;28;20036;-93
2024/02/03 07:29:43;;;;;;;30.50;15.43;;;;;;;;;;5037726;28;20018;-93
2024/02/03 07:32:09;;;;;;;35.63;18.13;;;;;;;;;;5020087;28;20103;-92
2024/02/03 07:34:35;;;;;;;45.63;21.00;;;;;;;;;;5020323;28;20042;-92
2024/02/03 07:37:01;;;;;;;40.30;18.70;;;;;;;;;;5020136;28;20072;-92
2024/02/03 07:39:27;;;;;;;32.58;17.85;;;;;;;;;;5019802;28;20116;-93
2024/02/03 07:41:53;;;;;;;34.63;18.17;;;;;;;;;;5037243;28;20037;-93
2024/02/03 07:44:19;;;;;;;35.00;18.35;;;;;;;;;;5019792;28;20470;-92
2024/02/03 07:46:45;;;;;;;23.58;13.90;;;;;;;;;;5019752;28;20025;-93
2024/02/03 07:49:11;;;;;;;24.85;13.18;;;;;;;;;;5020037;28;20040;-92
2024/02/03 07:51:37;;;;;;;25.92;13.60;;;;;;;;;;5020079;28;20049;-92
2024/02/03 08:03:14;;;;;;;36.30;17.65;;;;;;;;;;5035506;28;20376;-91
2024/02/03 08:05:40;;;;;;;47.72;20.95;;;;;;;;;;5053017;28;20053;-93
2024/02/03 08:08:06;;;;;;;61.42;24.00;;;;;;;;;;5045930;28;20049;-91
2024/02/03 08:10:32;;;;;;;77.20;29.63;;;;;;;;;;5040974;28;20101;-90
2024/02/03 08:12:58;;;;;;;65.07;27.75;;;;;;;;;;5023615;28;20037;-91
2024/02/03 08:15:25;;;;;;;56.75;23.67;;;;;;;;;;5023531;28;20335;-92
2024/02/03 08:17:51;;;;;;;38.35;18.10;;;;;;;;;;5040948;28;20037;-92
2024/02/03 08:20:17;;;;;;;38.00;17.42;;;;;;;;;;5023711;28;20032;-92
2024/02/03 08:26:00;;;;;;;26.65;14.75;;;;;;;;;;5040621;28;20040;-92
2024/02/03 08:28:26;;;;;;;36.58;15.60;;;;;;;;;;5040616;28;20037;-92
2024/02/03 08:30:52;;;;;;;72.93;22.92;;;;;;;;;;5023317;28;20046;-90
2024/02/03 08:33:18;;;;;;;61.85;22.50;;;;;;;;;;5052054;28;20104;-93
2024/02/03 08:35:44;;;;;;;40.00;17.67;;;;;;;;;;5023022;28;20112;-92
2024/02/03 08:44:18;;;;;;;28.83;14.27;;;;;;;;;;5044108;28;20050;-89
2024/02/03 08:46:44;;;;;;;25.27;13.90;;;;;;;;;;5042870;28;20025;-91
2024/02/03 08:49:10;;;;;;;27.95;14.90;;;;;;;;;;5034226;28;20024;-92
2024/02/03 08:51:36;;;;;;;22.65;12.48;;;;;;;;;;5030353;28;20411;-90
2024/02/03 08:54:02;;;;;;;16.38;9.40;;;;;;;;;;5042471;28;20414;-89
2024/02/03 08:56:28;;;;;;;18.58;10.13;;;;;;;;;;5042531;28;20131;-90
2024/02/03 08:58:54;;;;;;;17.38;10.30;;;;;;;;;;5059689;28;20086;-89
2024/02/03 09:01:20;;;;;;;15.75;10.40;;;;;;;;;;5029167;28;20025;-92
2024/02/03 09:03:46;;;;;;;15.95;9.75;;;;;;;;;;5022557;28;20036;-90
2024/02/03 09:06:12;;;;;;;14.85;9.10;;;;;;;;;;5022692;28;20025;-90
2024/02/03 09:11:42;;;;;;;15.10;8.18;;;;;;;;;;5039966;28;20080;-89
2024/02/03 09:14:08;;;;;;;16.17;8.80;;;;;;;;;;5040526;28;20033;-91
2024/02/03 09:16:34;;;;;;;14.43;8.40;;;;;;;;;;5030514;28;20029;-89
2024/02/03 09:19:00;;;;;;;17.65;9.13;;;;;;;;;;5021955;28;20045;-90
2024/02/03 09:21:26;;;;;;;14.98;8.48;;;;;;;;;;5055106;28;20319;-87
2024/02/03 09:24:29;;;;;;;17.88;8.98;;;;;;;;;;5060175;28;20382;-90
2024/02/03 09:26:55;;;;;;;13.77;8.05;;;;;;;;;;5054302;28;20049;-89
2024/02/03 09:29:22;;;;;;;11.02;7.13;;;;;;;;;;5039583;28;20026;-89
2024/02/03 09:31:48;;;;;;;27.90;11.98;;;;;;;;;;5038727;28;20050;-91
2024/02/03 09:34:14;;;;;;;13.48;8.20;;;;;;;;;;5021813;28;20057;-91
2024/02/03 09:36:43;;;;;;;12.38;8.15;;;;;;;;;;5039372;28;20112;-92
2024/02/03 09:42:31;;;;;;;19.42;9.10;;;;;;;;;;5038630;28;20099;-92
2024/02/03 09:44:57;;;;;;;11.68;7.20;;;;;;;;;;5039098;28;20032;-92
2024/02/03 09:47:23;;;;;;;31.48;12.48;;;;;;;;;;5042919;28;20025;-92
2024/02/03 09:49:50;;;;;;;14.10;7.45;;;;;;;;;;5033113;28;20033;-91
2024/02/03 09:52:16;;;;;;;16.40;9.38;;;;;;;;;;5006449;28;20117;-92
2024/02/03 09:54:46;;;;;;;13.55;7.78;;;;;;;;;;5001895;28;20355;-89
2024/02/03 09:57:12;;;;;;;8.80;6.50;;;;;;;;;;5019392;28;20347;-92
2024/02/03 09:59:38;;;;;;;15.20;7.35;;;;;;;;;;5024920;28;20025;-89
2024/02/03 10:02:04;;;;;;;18.48;9.95;;;;;;;;;;5039131;28;20061;-90
2024/02/03 10:04:40;;;;;;;12.57;6.57;;;;;;;;;;5039174;28;20386;-90
2024/02/03 10:07:06;;;;;;;21.13;10.40;;;;;;;;;;5051184;28;20032;-89
2024/02/03 10:09:32;;;;;;;9.50;6.50;;;;;;;;;;5058855;28;20021;-90
2024/02/03 10:11:59;;;;;;;13.05;6.75;;;;;;;;;;5041324;28;20029;-89
2024/02/03 10:14:25;;;;;;;13.18;7.03;;;;;;;;;;5058825;28;20025;-89
2024/02/03 10:16:51;;;;;;;9.60;6.45;;;;;;;;;;5034500;28;20057;-91
2024/02/03 10:19:17;;;;;;;9.10;6.28;;;;;;;;;;5038781;28;20025;-89
2024/02/03 10:21:43;;;;;;;11.32;6.47;;;;;;;;;;5022077;28;20094;-93
2024/02/03 10:27:13;;;;;;;10.05;6.53;;;;;;;;;;5038429;28;20048;-92
2024/02/03 10:29:39;;;;;;;12.70;6.63;;;;;;;;;;5038080;28;20025;-92
2024/02/03 10:32:05;;;;;;;12.00;8.10;;;;;;;;;;5038646;28;20335;-91
2024/02/03 10:34:34;;;;;;;10.73;7.10;;;;;;;;;;5036975;28;20029;-92
2024/02/03 10:37:01;;;;;;;9.57;6.13;;;;;;;;;;5040799;28;20078;-92
2024/02/03 10:40:04;;;;;;;11.98;6.82;;;;;;;;;;5058605;28;20036;-92
2024/02/03 10:42:31;;;;;;;8.57;6.32;;;;;;;;;;5037455;28;20064;-90
2024/02/03 10:44:59;;;;;;;8.23;6.13;;;;;;;;;;5038290;28;20025;-93
2024/02/03 10:47:25;;;;;;;7.32;5.82;;;;;;;;;;5021558;28;20030;-92
2024/02/03 10:49:54;;;;;;;9.38;5.90;;;;;;;;;;5038580;28;20128;-93
2024/02/03 10:52:21;;;;;;;9.57;6.28;;;;;;;;;;5020800;28;20025;-91
2024/02/03 10:54:48;;;;;;;8.82;6.18;;;;;;;;;;5040552;28;20017;-91
2024/02/03 10:57:17;;;;;;;11.05;6.53;;;;;;;;;;5035163;28;20025;-91
2024/02/03 10:59:43;;;;;;;10.05;6.63;;;;;;;;;;5022967;28;20033;-92
2024/02/03 11:02:17;;;;;;;11.35;7.00;;;;;;;;;;5033893;28;20036;-93
2024/02/03 11:04:47;;;;;;;8.68;6.00;;;;;;;;;;5022258;28;20466;-92
2024/02/03 11:07:23;;;;;;;10.05;6.40;;;;;;;;;;5020715;28;20029;-92
2024/02/03 11:10:08;;;;;;;11.77;6.50;;;;;;;;;;5038104;28;20034;-92
2024/02/03 11:12:34;;;;;;;12.23;6.93;;;;;;;;;;5022943;28;20037;-93
2024/02/03 11:15:00;;;;;;;9.75;5.90;;;;;;;;;;5058332;28;20029;-92
2024/02/03 11:17:33;;;;;;;24.23;10.38;;;;;;;;;;5058315;28;20025;-92
2024/02/03 11:20:03;;;;;;;10.60;5.72;;;;;;;;;;5057904;28;20021;-91
2024/02/03 11:22:29;;;;;;;42.15;17.65;;;;;;;;;;5050797;28;20060;-94
2024/02/03 11:24:55;;;;;;;7.88;5.20;;;;;;;;;;5038451;28;20029;-90
2024/02/03 11:27:21;;;;;;;6.25;4.82;;;;;;;;;;5027325;28;20082;-91
2024/02/03 11:29:47;;;;;;;9.10;5.20;;;;;;;;;;5040537;28;20067;-92
2024/02/03 11:32:14;;;;;;;7.70;4.60;;;;;;;;;;5057240;28;20439;-92
2024/02/03 11:34:41;;;;;;;7.00;5.05;;;;;;;;;;5040297;28;20060;-92
2024/02/03 11:37:13;;;;;;;7.63;4.97;;;;;;;;;;5058859;28;20032;-92
2024/02/03 11:39:40;;;;;;;6.50;4.50;;;;;;;;;;5043754;28;20087;-91
2024/02/03 11:42:07;;;;;;;6.18;4.60;;;;;;;;;;5042057;28;20037;-91
2024/02/03 11:44:36;;;;;;;8.20;5.05;;;;;;;;;;5024163;28;20021;-91
2024/02/03 11:47:03;;;;;;;12.27;6.88;;;;;;;;;;5034242;28;20029;-92
2024/02/03 11:49:29;;;;;;;9.20;5.88;;;;;;;;;;5061383;28;20025;-89
2024/02/03 11:52:02;;;;;;;9.95;5.20;;;;;;;;;;5043876;28;20029;-91
2024/02/03 11:54:28;;;;;;;6.78;4.70;;;;;;;;;;5061282;28;20040;-91
2024/02/03 11:56:55;;;;;;;6.80;4.57;;;;;;;;;;5042741;28;20029;-91
2024/02/03 11:59:26;;;;;;;90.22;21.80;;;;;;;;;;5039755;28;20215;-91
2024/02/03 12:01:52;;;;;;;11.30;6.03;;;;;;;;;;5004080;28;20045;-90
2024/02/03 12:04:18;;;;;;;6.07;4.32;;;;;;;;;;5020059;28;20108;-91
2024/02/03 12:06:44;;;;;;;6.82;5.03;;;;;;;;;;5041940;28;20025;-90
2024/02/03 12:09:10;;;;;;;7.72;5.32;;;;;;;;;;5042705;28;20025;-92
2024/02/03 12:11:36;;;;;;;8.07;4.97;;;;;;;;;;5025101;28;20115;-91
2024/02/03 12:14:02;;;;;;;5.75;4.82;;;;;;;;;;5024172;28;20407;-91
2024/02/03 12:16:30;;;;;;;5.03;4.10;;;;;;;;;;5041825;28;20412;-91
2024/02/03 12:18:56;;;;;;;7.47;3.90;;;;;;;;;;5042041;28;20088;-90
2024/02/03 12:21:22;;;;;;;6.82;4.88;;;;;;;;;;5023250;28;20034;-91
2024/02/03 12:30:19;;;;;;;7.32;4.85;;;;;;;;;;5040844;28;20035;-90
2024/02/03 12:32:46;;;;;;;7.22;4.00;;;;;;;;;;5041158;28;20088;-90
2024/02/03 12:35:12;;;;;;;6.80;4.22;;;;;;;;;;5043134;28;20075;-92
2024/02/03 12:37:39;;;;;;;5.22;3.53;;;;;;;;;;5041810;28;20026;-92
2024/02/03 12:40:06;;;;;;;5.47;4.00;;;;;;;;;;5040393;28;20028;-90
2024/02/03 12:42:32;;;;;;;8.18;4.80;;;;;;;;;;5022704;28;20041;-90
2024/02/03 12:45:00;;;;;;;11.20;5.00;;;;;;;;;;5023074;28;20067;-89
2024/02/03 12:47:27;;;;;;;10.30;5.80;;;;;;;;;;5040265;28;20048;-90
2024/02/03 12:49:53;;;;;;;12.60;5.85;;;;;;;;;;5050467;28;20044;-88
2024/02/03 12:52:19;;;;;;;5.07;3.78;;;;;;;;;;5060487;28;20017;-89
2024/02/03 12:54:46;;;;;;;7.97;3.95;;;;;;;;;;5058302;28;20049;-88
2024/02/03 12:57:15;;;;;;;6.78;4.60;;;;;;;;;;5059988;28;20079;-88
2024/02/03 12:59:41;;;;;;;7.53;4.90;;;;;;;;;;5059693;28;20187;-90
2024/02/03 13:02:07;;;;;;;5.28;4.47;;;;;;;;;;5042402;28;20120;-88
2024/02/03 13:04:33;;;;;;;5.80;4.35;;;;;;;;;;5042408;28;20140;-87
2024/02/03 13:06:59;;;;;;;6.28;4.20;;;;;;;;;;5060279;28;20021;-88
2024/02/03 13:12:29;;;;;;;6.75;4.25;;;;;;;;;;5040169;28;20075;-89
2024/02/03 13:14:55;;;;;;;8.95;6.22;;;;;;;;;;5022368;28;20053;-90
2024/02/03 13:17:22;;;;;;;7.68;5.15;;;;;;;;;;5022468;28;20036;-89
2024/02/03 13:19:48;;;;;;;15.07;7.35;;;;;;;;;;5021810;28;20351;-89
2024/02/03 13:22:14;;;;;;;10.93;7.00;;;;;;;;;;5044221;28;20027;-89
2024/02/03 13:27:44;;;;;;;9.15;5.47;;;;;;;;;;5059724;28;20082;-88
2024/02/03 13:30:14;;;;;;;11.15;6.97;;;;;;;;;;5059317;28;20120;-88
2024/02/03 13:32:41;;;;;;;12.80;7.72;;;;;;;;;;5041358;28;20045;-89
2024/02/03 13:35:07;;;;;;;13.40;6.45;;;;;;;;;;5059286;28;20031;-88
2024/02/03 13:37:34;;;;;;;9.98;6.50;;;;;;;;;;5040701;28;20308;-89
2024/02/03 13:43:05;;;;;;;17.00;10.65;;;;;;;;;;5019869;28;20482;-89
2024/02/03 13:45:31;;;;;;;16.98;10.52;;;;;;;;;;5019562;28;20448;-87
2024/02/03 13:47:57;;;;;;;18.10;11.07;;;;;;;;;;5002361;28;20061;-93
2024/02/03 13:50:23;;;;;;;12.48;8.18;;;;;;;;;;5019480;28;20404;-91
2024/02/03 13:52:49;;;;;;;18.27;10.32;;;;;;;;;;5019613;28;20030;-91
2024/02/03 13:55:16;;;;;;;17.40;10.10;;;;;;;;;;5019109;28;20029;-88
2024/02/03 13:57:42;;;;;;;14.93;9.35;;;;;;;;;;5018602;28;20049;-89
2024/02/03 14:00:10;;;;;;;15.10;10.23;;;;;;;;;;5020267;28;20044;-88
2024/02/03 14:02:36;;;;;;;12.18;6.55;;;;;;;;;;5038610;28;20034;-89
2024/02/03 14:05:02;;;;;;;16.25;10.90;;;;;;;;;;5039199;28;20029;-88
2024/02/03 14:07:29;;;;;;;17.80;11.07;;;;;;;;;;5039027;28;20048;-88
2024/02/03 14:09:55;;;;;;;16.33;10.38;;;;;;;;;;5038781;28;20022;-89
2024/02/03 14:12:21;;;;;;;16.25;9.27;;;;;;;;;;5021439;28;20033;-89
2024/02/03 14:14:47;;;;;;;10.38;5.72;;;;;;;;;;5039020;28;20021;-88
2024/02/03 14:17:13;;;;;;;10.07;6.28;;;;;;;;;;5021512;28;20037;-88
2024/02/03 14:19:39;;;;;;;16.67;10.40;;;;;;;;;;5038603;28;20026;-89
2024/02/03 14:22:05;;;;;;;21.50;13.23;;;;;;;;;;5038776;28;20108;-90
2024/02/03 14:27:35;;;;;;;15.82;9.65;;;;;;;;;;5038468;28;20033;-89
2024/02/03 14:30:05;;;;;;;16.45;11.18;;;;;;;;;;5038425;28;20028;-90
2024/02/03 14:32:31;;;;;;;19.42;12.88;;;;;;;;;;5017194;28;20096;-88
2024/02/03 14:34:57;;;;;;;12.82;8.57;;;;;;;;;;5017828;28;20049;-90
2024/02/03 14:37:23;;;;;;;12.68;7.88;;;;;;;;;;5017717;28;20045;-89
2024/02/03 14:45:59;;;;;;;13.10;7.60;;;;;;;;;;5018691;28;20025;-85
2024/02/03 14:48:25;;;;;;;15.77;9.10;;;;;;;;;;5018353;28;20411;-89
2024/02/03 14:50:51;;;;;;;20.90;12.15;;;;;;;;;;5018952;28;20036;-89
2024/02/03 14:53:18;;;;;;;27.85;15.48;;;;;;;;;;5018424;28;20052;-90
2024/02/03 14:59:06;;;;;;;18.67;11.80;;;;;;;;;;5038270;28;20999;-87
2024/02/03 15:01:32;;;;;;;13.63;8.25;;;;;;;;;;5017181;28;20030;-88
2024/02/03 15:03:58;;;;;;;17.00;10.50;;;;;;;;;;5010143;28;20042;-87
2024/02/03 15:06:25;;;;;;;15.20;8.75;;;;;;;;;;4998620;28;20118;-89
2024/02/03 15:08:51;;;;;;;15.02;10.00;;;;;;;;;;4997634;28;20026;-89
2024/02/03 15:11:17;;;;;;;19.30;10.18;;;;;;;;;;4997306;28;20030;-89
2024/02/03 15:13:43;;;;;;;13.45;9.00;;;;;;;;;;4998164;28;20031;-90
2024/02/03 15:16:09;;;;;;;12.18;8.48;;;;;;;;;;4998284;28;20030;-89
2024/02/03 15:18:35;;;;;;;8.20;5.65;;;;;;;;;;4998411;28;20431;-89
2024/02/03 15:21:01;;;;;;;12.52;8.27;;;;;;;;;;4997974;28;20022;-81
2024/02/03 15:23:27;;;;;;;13.80;8.07;;;;;;;;;;4997989;28;20033;-88
2024/02/03 15:25:53;;;;;;;9.55;6.63;;;;;;;;;;5002373;28;20026;-89
2024/02/03 15:28:19;;;;;;;19.63;11.82;;;;;;;;;;5016253;28;20030;-91